Time;durP1;ratioP1;P1;durP2;ratioP2;P2;SDS_P1;SDS_P2;PMS_P1;PMS_P2;Temp;Humidity;BMP_temperature;BMP_pressure;BME280_temperature;BME280_humidity;BME280_pressure;Samples;Min_cycle;Max_cycle;Signal;HPM_P1;HPM_P2
2023/02/01 00:02:10;;;;;;;0.93;0.80;;;;;;;7.28;100.00;100802.47;5015138;28;20472;-52
2023/02/01 00:04:37;;;;;;;0.60;0.60;;;;;;;7.28;100.00;100805.13;5014879;28;20586;-51
2023/02/01 00:07:03;;;;;;;0.60;0.40;;;;;;;7.34;100.00;100799.78;5015005;28;20453;-52
2023/02/01 00:09:30;;;;;;;0.67;0.67;;;;;;;7.19;100.00;100813.09;5009356;28;20455;-52
2023/02/01 00:11:59;;;;;;;1.13;1.03;;;;;;;7.36;100.00;100803.28;5005096;28;20492;-52
2023/02/01 00:14:25;;;;;;;0.67;0.67;;;;;;;7.34;100.00;100805.06;5012271;28;20488;-51
2023/02/01 00:16:52;;;;;;;0.83;0.80;;;;;;;7.39;100.00;100792.66;5014723;28;20510;-52
2023/02/01 00:19:18;;;;;;;0.43;0.40;;;;;;;7.43;100.00;100799.72;5014586;28;20456;-52
2023/02/01 00:21:45;;;;;;;0.87;0.87;;;;;;;7.30;100.00;100795.41;5014467;28;20458;-51
2023/02/01 00:24:12;;;;;;;1.40;1.30;;;;;;;7.25;100.00;100793.66;5014198;28;20869;-51
2023/02/01 00:26:42;;;;;;;0.50;0.50;;;;;;;7.47;100.00;100786.47;5014365;28;20445;-51
2023/02/01 00:29:13;;;;;;;0.90;0.40;;;;;;;7.50;100.00;100797.00;5014137;28;20567;-51
2023/02/01 00:31:39;;;;;;;1.90;1.13;;;;;;;7.45;100.00;100786.47;5014427;28;20444;-51
2023/02/01 00:34:06;;;;;;;0.80;0.77;;;;;;;7.51;100.00;100786.41;5013966;28;20459;-52
2023/02/01 00:36:33;;;;;;;1.43;1.17;;;;;;;7.49;100.00;100780.25;5013931;28;20857;-52
2023/02/01 00:38:59;;;;;;;0.70;0.70;;;;;;;7.51;100.00;100783.75;5009836;28;20453;-51
2023/02/01 00:41:26;;;;;;;0.30;0.30;;;;;;;7.31;100.00;100791.88;5007183;28;20449;-52
2023/02/01 00:43:53;;;;;;;1.67;0.37;;;;;;;7.34;100.00;100791.84;5013869;28;20595;-51
2023/02/01 00:46:21;;;;;;;1.07;0.87;;;;;;;7.55;100.00;100788.16;5013809;28;20510;-52
2023/02/01 00:48:48;;;;;;;1.30;0.77;;;;;;;7.47;100.00;100784.69;5008236;28;20461;-51
2023/02/01 00:51:17;;;;;;;1.10;1.00;;;;;;;7.55;100.00;100785.50;5006351;28;20511;-51
2023/02/01 00:53:45;;;;;;;0.70;0.70;;;;;;;7.54;100.00;100791.69;5007582;28;20542;-51
2023/02/01 00:56:12;;;;;;;0.67;0.67;;;;;;;7.56;100.00;100784.63;5007181;28;20453;-52
2023/02/01 00:58:38;;;;;;;1.80;0.40;;;;;;;7.66;100.00;100791.56;5000850;28;20461;-51
2023/02/01 01:01:09;;;;;;;6.93;1.00;;;;;;;7.47;100.00;100781.16;5013878;28;20479;-52
2023/02/01 01:03:39;;;;;;;1.13;0.70;;;;;;;7.51;100.00;100781.13;5013347;28;20538;-52
2023/02/01 01:06:08;;;;;;;0.80;0.67;;;;;;;7.54;100.00;100774.91;5013600;28;20452;-52
2023/02/01 01:08:35;;;;;;;1.03;0.50;;;;;;;7.45;100.00;100764.44;5012425;28;20984;-52
2023/02/01 01:11:11;;;;;;;0.67;0.67;;;;;;;7.54;100.00;100774.91;5006699;28;20914;-52
2023/02/01 01:13:38;;;;;;;1.43;1.03;;;;;;;7.43;100.00;100773.25;5003284;28;20546;-51
2023/02/01 01:16:06;;;;;;;0.50;0.40;;;;;;;7.42;100.00;100776.81;5011883;28;20452;-52
2023/02/01 01:18:34;;;;;;;0.40;0.30;;;;;;;7.31;100.00;100775.13;5013306;28;20492;-53
2023/02/01 01:21:01;;;;;;;0.50;0.40;;;;;;;7.37;100.00;100768.00;5013298;28;20463;-51
2023/02/01 01:23:28;;;;;;;0.70;0.70;;;;;;;7.19;100.00;100772.56;5013293;28;20891;-51
2023/02/01 01:25:54;;;;;;;0.87;0.67;;;;;;;7.46;100.00;100768.84;5013165;28;20452;-51
2023/02/01 01:28:21;;;;;;;1.07;0.83;;;;;;;7.27;100.00;100768.13;5013156;28;20451;-52
2023/02/01 01:30:47;;;;;;;1.10;0.80;;;;;;;7.40;100.00;100773.28;5012979;28;20456;-53
2023/02/01 01:33:14;;;;;;;0.90;0.90;;;;;;;7.30;100.00;100762.78;5013185;28;20523;-51
2023/02/01 01:35:41;;;;;;;4.50;1.00;;;;;;;7.48;100.00;100760.00;5012832;28;20463;-52
2023/02/01 01:38:09;;;;;;;1.67;1.57;;;;;;;7.27;100.00;100762.81;5013335;28;20484;-52
2023/02/01 01:40:36;;;;;;;0.90;0.87;;;;;;;7.36;100.00;100760.09;5000181;28;20453;-51
2023/02/01 01:43:02;;;;;;;2.17;1.00;;;;;;;7.24;100.00;100770.75;5012877;28;20981;-52
2023/02/01 01:45:30;;;;;;;0.60;0.60;;;;;;;7.43;100.00;100761.81;5012717;28;20526;-52
2023/02/01 01:48:05;;;;;;;1.17;1.07;;;;;;;7.55;100.00;100760.84;5012923;28;20444;-52
2023/02/01 01:50:38;;;;;;;1.40;1.30;;;;;;;7.49;100.00;100753.81;4999819;28;20449;-51
2023/02/01 01:53:08;;;;;;;1.20;1.10;;;;;;;7.55;100.00;100760.84;5011815;28;20472;-52
2023/02/01 01:55:38;;;;;;;1.87;1.77;;;;;;;7.47;100.00;100760.88;5000980;28;20452;-51
2023/02/01 01:58:09;;;;;;;3.17;0.97;;;;;;;7.39;100.00;100750.34;5012557;28;20490;-51
2023/02/01 02:00:36;;;;;;;0.70;0.50;;;;;;;7.38;100.00;100745.97;5012601;28;20960;-52
2023/02/01 02:03:13;;;;;;;4.13;2.43;;;;;;;7.27;100.00;100737.25;5012627;28;20484;-51
2023/02/01 02:05:40;;;;;;;2.67;1.90;;;;;;;7.35;100.00;100732.78;5013016;28;20444;-52
2023/02/01 02:08:07;;;;;;;0.60;0.60;;;;;;;7.22;100.00;100736.41;5012570;28;20458;-53
2023/02/01 02:13:19;;;;;;;0.60;0.57;;;;;;;7.30;100.00;100720.50;4993268;28;20522;-52
2023/02/01 02:15:57;;;;;;;1.23;1.13;;;;;;;7.42;100.00;100718.63;5006316;28;20521;-52
2023/02/01 02:19:03;;;;;;;1.23;0.73;;;;;;;7.28;100.00;100709.94;5012550;28;21021;-51
2023/02/01 02:21:47;;;;;;;1.00;0.60;;;;;;;7.17;100.00;100714.41;4997913;28;20463;-51
2023/02/01 02:24:44;;;;;;;1.57;1.50;;;;;;;7.34;100.00;100709.84;5012424;28;20459;-51
2023/02/01 02:27:38;;;;;;;1.70;1.60;;;;;;;7.41;100.00;100702.78;5012401;28;20444;-52
2023/02/01 02:30:26;;;;;;;1.23;1.03;;;;;;;7.51;100.00;100703.53;5012558;28;20440;-52
2023/02/01 02:33:11;;;;;;;0.60;0.60;;;;;;;7.27;100.00;100700.25;4992784;28;20911;-51
2023/02/01 02:36:19;;;;;;;0.80;0.80;;;;;;;7.42;100.00;100712.44;5009457;28;20946;-51
2023/02/01 02:39:09;;;;;;;1.60;1.13;;;;;;;7.31;100.00;100723.13;5007762;28;20492;-52
2023/02/01 02:48:11;;;;;;;0.73;0.40;;;;;;;7.38;100.00;100737.16;5002998;28;20448;-51
2023/02/01 03:05:06;;;;;;;1.07;1.03;;;;;;;7.43;100.00;100716.84;5015902;28;20507;-51
2023/02/01 03:08:10;;;;;;;12.27;1.80;;;;;;;7.41;100.00;100719.50;5015982;28;20468;-51
2023/02/01 03:11:04;;;;;;;1.80;1.20;;;;;;;7.49;100.00;100723.84;4983095;28;20463;-52
2023/02/01 03:13:33;;;;;;;0.40;0.40;;;;;;;7.48;100.00;100727.38;5006826;28;20481;-52
2023/02/01 03:16:13;;;;;;;1.70;1.60;;;;;;;7.43;100.00;100719.50;5011528;28;20971;-52
2023/02/01 03:19:11;;;;;;;1.03;0.80;;;;;;;7.37;100.00;100727.47;5015545;28;20494;-51
2023/02/01 03:21:41;;;;;;;1.27;1.17;;;;;;;7.46;100.00;100722.09;5022740;28;20456;-52
2023/02/01 03:24:17;;;;;;;0.70;0.70;;;;;;;7.37;100.00;100724.81;5015552;28;20445;-52
2023/02/01 03:26:55;;;;;;;9.70;2.00;;;;;;;7.42;100.00;100718.63;5014246;28;20459;-53
2023/02/01 03:29:29;;;;;;;2.00;0.80;;;;;;;7.24;100.00;100724.03;5015239;28;20447;-52
2023/02/01 03:31:56;;;;;;;1.93;1.83;;;;;;;7.30;100.00;100724.00;5015307;28;20839;-51
2023/02/01 03:34:22;;;;;;;7.43;1.07;;;;;;;7.24;100.00;100726.69;5014180;28;20510;-51
2023/02/01 03:36:56;;;;;;;1.10;0.97;;;;;;;7.40;100.00;100711.56;5015320;28;20456;-52
2023/02/01 03:39:39;;;;;;;0.60;0.60;;;;;;;7.23;100.00;100703.78;5003101;28;20604;-51
2023/02/01 03:42:16;;;;;;;2.77;1.13;;;;;;;7.55;100.00;100698.22;5012405;28;20507;-52
2023/02/01 03:44:55;;;;;;;0.70;0.60;;;;;;;7.28;100.00;100695.84;5006173;28;20440;-52
2023/02/01 03:47:25;;;;;;;1.13;1.03;;;;;;;7.23;100.00;100695.84;5014960;28;20946;-51
2023/02/01 03:50:06;;;;;;;1.63;1.53;;;;;;;7.30;100.00;100702.84;5001008;28;20450;-51
2023/02/01 03:52:53;;;;;;;2.20;1.27;;;;;;;7.26;100.00;100695.81;5005041;28;20475;-51
2023/02/01 03:55:25;;;;;;;3.13;0.90;;;;;;;7.38;100.00;100700.13;4995259;28;20850;-51
2023/02/01 03:58:06;;;;;;;0.50;0.50;;;;;;;7.43;100.00;100701.84;5008157;28;20491;-52
2023/02/01 04:00:32;;;;;;;0.40;0.30;;;;;;;7.32;100.00;100694.91;4995231;28;20454;-52
2023/02/01 04:02:59;;;;;;;0.60;0.60;;;;;;;7.45;100.00;100695.69;5007938;28;20472;-51
2023/02/01 04:05:25;;;;;;;0.60;0.60;;;;;;;7.34;100.00;100698.41;5003984;28;20478;-52
2023/02/01 04:07:52;;;;;;;0.60;0.43;;;;;;;7.43;100.00;100700.97;5013157;28;20547;-51
2023/02/01 04:10:18;;;;;;;1.37;1.27;;;;;;;7.25;100.00;100709.94;5008871;28;20539;-51
2023/02/01 04:12:45;;;;;;;0.97;0.60;;;;;;;7.41;100.00;100706.28;4998543;28;20522;-51
2023/02/01 04:15:12;;;;;;;0.80;0.60;;;;;;;7.37;100.00;100708.94;5000083;28;20450;-55
2023/02/01 04:17:38;;;;;;;0.70;0.60;;;;;;;7.19;100.00;100704.72;5006866;28;20497;-51
2023/02/01 04:20:05;;;;;;;0.80;0.50;;;;;;;7.14;100.00;100703.88;5004302;28;20949;-52
2023/02/01 04:22:32;;;;;;;0.30;0.27;;;;;;;7.10;100.00;100702.13;5014085;28;20475;-51
2023/02/01 04:24:58;;;;;;;0.50;0.40;;;;;;;7.18;100.00;100713.53;5014361;28;20448;-51
2023/02/01 04:27:25;;;;;;;0.30;0.30;;;;;;;7.05;100.00;100709.22;5014201;28;20535;-51
2023/02/01 04:29:51;;;;;;;0.60;0.60;;;;;;;7.16;100.00;100710.03;5014165;28;20449;-51
2023/02/01 04:32:19;;;;;;;0.60;0.50;;;;;;;7.12;100.00;100697.69;5014063;28;20567;-52
2023/02/01 04:34:46;;;;;;;0.63;0.60;;;;;;;7.20;100.00;100710.88;5013100;28;20468;-51
2023/02/01 04:37:12;;;;;;;0.30;0.27;;;;;;;7.02;100.00;100718.06;5013946;28;20454;-52
2023/02/01 04:39:38;;;;;;;0.47;0.40;;;;;;;7.08;100.00;100704.78;5004601;28;20460;-51
2023/02/01 04:42:05;;;;;;;1.13;0.50;;;;;;;7.06;100.00;100703.03;5011482;28;20556;-52
2023/02/01 04:44:31;;;;;;;0.80;0.60;;;;;;;7.04;100.00;100705.72;5003003;28;20869;-51
2023/02/01 04:46:58;;;;;;;0.30;0.20;;;;;;;6.79;100.00;100705.00;5011873;28;20452;-52
2023/02/01 04:49:26;;;;;;;0.40;0.30;;;;;;;6.79;100.00;100712.91;5003402;28;20456;-51
2023/02/01 04:51:52;;;;;;;0.43;0.40;;;;;;;6.91;100.00;100714.59;5011652;28;20485;-51
2023/02/01 04:54:19;;;;;;;0.30;0.20;;;;;;;6.79;100.00;100720.84;5002596;28;20461;-52
2023/02/01 04:56:45;;;;;;;0.40;0.30;;;;;;;6.79;100.00;100730.53;5011890;28;20971;-51
2023/02/01 04:59:12;;;;;;;12.13;1.37;;;;;;;6.87;100.00;100734.03;5013476;28;20490;-51
2023/02/01 05:01:38;;;;;;;0.30;0.20;;;;;;;6.81;100.00;100729.63;5013639;28;20452;-51
2023/02/01 05:04:05;;;;;;;0.30;0.20;;;;;;;6.82;100.00;100725.22;5013754;28;20502;-52
2023/02/01 05:06:31;;;;;;;0.30;0.30;;;;;;;6.86;100.00;100726.13;5013512;28;20448;-51
2023/02/01 05:08:57;;;;;;;2.87;0.50;;;;;;;7.18;100.00;100721.47;5009540;28;20465;-52
2023/02/01 05:14:09;;;;;;;0.30;0.30;;;;;;;7.05;100.00;100715.38;5007894;28;20444;-53
2023/02/01 05:16:36;;;;;;;0.30;0.30;;;;;;;6.99;100.00;100711.91;5013475;28;20448;-51
2023/02/01 05:19:02;;;;;;;0.30;0.30;;;;;;;7.01;100.00;100703.09;5013133;28;20488;-51
2023/02/01 05:21:29;;;;;;;0.30;0.20;;;;;;;6.95;100.00;100711.03;5012480;28;20544;-53
2023/02/01 05:24:10;;;;;;;0.20;0.20;;;;;;;7.06;100.00;100708.34;5013465;28;20547;-51
2023/02/01 05:26:37;;;;;;;0.30;0.20;;;;;;;6.90;100.00;100698.78;5013150;28;20479;-51
2023/02/01 05:29:05;;;;;;;0.97;0.80;;;;;;;7.00;100.00;100689.91;5013077;28;21029;-51
2023/02/01 05:31:31;;;;;;;0.50;0.30;;;;;;;6.98;100.00;100692.53;5012955;28;20454;-52
2023/02/01 05:33:58;;;;;;;0.83;0.50;;;;;;;7.04;100.00;100684.56;5013041;28;20479;-52
2023/02/01 05:36:24;;;;;;;0.20;0.20;;;;;;;7.12;100.00;100682.72;5013101;28;20498;-52
2023/02/01 05:38:50;;;;;;;2.67;0.67;;;;;;;7.02;100.00;100685.47;5009622;28;20500;-51
2023/02/01 05:41:17;;;;;;;0.27;0.23;;;;;;;6.97;100.00;100681.97;5003954;28;20507;-52
2023/02/01 05:43:48;;;;;;;0.40;0.30;;;;;;;6.92;100.00;100699.63;4999368;28;20837;-52
2023/02/01 05:46:14;;;;;;;0.30;0.20;;;;;;;7.01;100.00;100708.38;5012757;28;20872;-52
2023/02/01 05:48:42;;;;;;;0.40;0.37;;;;;;;6.97;100.00;100700.47;5007922;28;20976;-51
2023/02/01 05:51:10;;;;;;;0.30;0.20;;;;;;;6.78;100.00;100702.38;5004372;28;20449;-52
2023/02/01 05:53:37;;;;;;;0.93;0.43;;;;;;;7.07;100.00;100699.50;5006089;28;20513;-52
2023/02/01 05:56:03;;;;;;;5.03;0.40;;;;;;;6.85;100.00;100701.41;5005145;28;20503;-51
2023/02/01 05:58:30;;;;;;;0.30;0.20;;;;;;;7.03;100.00;100705.72;5012884;28;20494;-52
2023/02/01 06:01:00;;;;;;;0.60;0.60;;;;;;;7.05;100.00;100703.94;5012935;28;20836;-52
2023/02/01 06:03:27;;;;;;;0.97;0.97;;;;;;;6.99;100.00;100712.81;5012329;28;20483;-52
2023/02/01 06:05:53;;;;;;;2.07;0.50;;;;;;;6.97;100.00;100700.47;5012313;28;20449;-51
2023/02/01 06:08:20;;;;;;;2.33;0.30;;;;;;;7.07;100.00;100708.31;5012463;28;20544;-52
2023/02/01 06:10:46;;;;;;;0.73;0.73;;;;;;;7.10;100.00;100712.69;5006522;28;20861;-51
2023/02/01 06:13:13;;;;;;;0.40;0.30;;;;;;;7.07;100.00;100725.94;4998973;28;20481;-52
2023/02/01 06:15:42;;;;;;;3.50;1.23;;;;;;;6.86;100.00;100707.63;5012589;28;20452;-51
2023/02/01 06:18:08;;;;;;;2.37;2.33;;;;;;;7.00;100.00;100705.75;4992706;28;20493;-52
2023/02/01 06:20:35;;;;;;;0.30;0.23;;;;;;;6.90;100.00;100706.69;4993004;28;20453;-51
2023/02/01 06:23:01;;;;;;;0.30;0.30;;;;;;;6.68;100.00;100703.31;5012535;28;20483;-51
2023/02/01 06:25:27;;;;;;;0.90;0.70;;;;;;;6.72;100.00;100703.28;5012336;28;20453;-51
2023/02/01 06:27:54;;;;;;;0.30;0.20;;;;;;;6.69;100.00;100707.69;5012500;28;20444;-51
2023/02/01 06:30:20;;;;;;;2.17;1.37;;;;;;;6.82;100.00;100710.25;5012215;28;20942;-52
2023/02/01 06:32:53;;;;;;;2.50;0.70;;;;;;;6.92;100.00;100712.84;5015329;28;20498;-53
2023/02/01 06:35:20;;;;;;;8.60;0.80;;;;;;;6.69;100.00;100710.34;5016221;28;20448;-51
2023/02/01 06:37:46;;;;;;;2.00;0.60;;;;;;;6.63;100.00;100708.63;5016351;28;20489;-51
2023/02/01 06:40:13;;;;;;;0.40;0.30;;;;;;;6.66;100.00;100716.53;5003772;28;20453;-52
2023/02/01 06:42:39;;;;;;;0.57;0.57;;;;;;;6.62;100.00;100706.88;5007742;28;20468;-51
2023/02/01 06:45:07;;;;;;;0.70;0.70;;;;;;;6.52;100.00;100703.41;5011763;28;20459;-52
2023/02/01 06:47:33;;;;;;;0.50;0.40;;;;;;;6.73;100.00;100694.47;5015859;28;20453;-51
2023/02/01 06:49:59;;;;;;;0.40;0.40;;;;;;;6.70;100.00;100694.47;5003038;28;20445;-51
2023/02/01 06:52:26;;;;;;;8.43;0.60;;;;;;;6.64;100.00;100691.00;5016020;28;20560;-51
2023/02/01 06:54:52;;;;;;;1.37;1.20;;;;;;;6.61;100.00;100688.41;5001551;28;20461;-51
2023/02/01 06:57:18;;;;;;;3.50;0.50;;;;;;;6.69;100.00;100698.00;5015958;28;20810;-51
2023/02/01 06:59:45;;;;;;;0.87;0.87;;;;;;;6.71;100.00;100703.28;5015523;28;21021;-52
2023/02/01 07:02:11;;;;;;;0.40;0.40;;;;;;;6.77;100.00;100700.63;5015915;28;20473;-51
2023/02/01 07:04:38;;;;;;;3.17;0.73;;;;;;;6.73;100.00;100698.88;5015812;28;20479;-52
2023/02/01 07:07:04;;;;;;;0.30;0.30;;;;;;;6.67;100.00;100698.91;5015584;28;20902;-51
2023/02/01 07:09:31;;;;;;;0.60;0.50;;;;;;;6.72;100.00;100700.66;5009571;28;20573;-51
2023/02/01 07:11:57;;;;;;;1.17;0.67;;;;;;;6.77;100.00;100705.91;5006277;28;20547;-52
2023/02/01 07:14:24;;;;;;;0.97;0.90;;;;;;;6.62;100.00;100708.63;5011618;28;20448;-51
2023/02/01 07:16:50;;;;;;;7.10;1.30;;;;;;;6.63;100.00;100719.19;5015348;28;20957;-51
2023/02/01 07:19:17;;;;;;;0.93;0.80;;;;;;;6.75;99.84;100723.53;5015230;28;20896;-52
2023/02/01 07:21:43;;;;;;;2.67;2.47;;;;;;;6.69;100.00;100729.69;5015533;28;20452;-52
2023/02/01 07:24:10;;;;;;;0.60;0.60;;;;;;;6.76;100.00;100712.94;5015361;28;20460;-51
2023/02/01 07:26:36;;;;;;;6.43;0.73;;;;;;;6.60;100.00;100718.34;5015357;28;20452;-51
2023/02/01 07:29:02;;;;;;;0.80;0.80;;;;;;;6.73;98.73;100714.75;5015208;28;20449;-52
2023/02/01 07:31:29;;;;;;;3.73;1.43;;;;;;;6.89;98.93;100718.16;5015443;28;20870;-52
2023/02/01 07:33:57;;;;;;;0.80;0.60;;;;;;;6.73;98.45;100723.53;5015367;28;20522;-51
2023/02/01 07:36:24;;;;;;;2.37;1.13;;;;;;;6.82;98.19;100728.75;5015613;28;20535;-51
2023/02/01 07:38:51;;;;;;;0.50;0.50;;;;;;;6.67;98.69;100738.53;5011944;28;20864;-52
2023/02/01 07:41:21;;;;;;;4.53;1.90;;;;;;;6.77;98.29;100737.59;5006130;28;20445;-52
2023/02/01 07:43:48;;;;;;;0.57;0.57;;;;;;;6.75;97.85;100739.38;5000992;28;20468;-51
2023/02/01 07:46:15;;;;;;;0.67;0.37;;;;;;;6.69;98.49;100742.03;5015105;28;20502;-52
2023/02/01 07:48:42;;;;;;;5.83;0.80;;;;;;;6.57;98.99;100740.34;5010279;28;20813;-52
2023/02/01 07:51:11;;;;;;;2.60;0.67;;;;;;;6.78;98.10;100749.91;5006728;28;20458;-51
2023/02/01 07:53:38;;;;;;;1.13;1.13;;;;;;;6.74;99.05;100746.44;5009487;28;20835;-51
2023/02/01 07:56:12;;;;;;;5.23;0.60;;;;;;;6.84;97.73;100757.78;5006964;28;20964;-52
2023/02/01 07:58:39;;;;;;;29.97;1.43;;;;;;;6.71;98.63;100753.47;5014526;28;21009;-51
2023/02/01 08:01:20;;;;;;;30.97;1.50;;;;;;;6.76;98.21;100759.63;5014626;28;20449;-51
2023/02/01 08:03:49;;;;;;;1.37;0.83;;;;;;;6.81;97.73;100758.69;5003398;28;20522;-51
2023/02/01 08:06:16;;;;;;;0.77;0.57;;;;;;;6.97;97.74;100748.91;5014574;28;20456;-51
2023/02/01 08:08:44;;;;;;;3.87;1.07;;;;;;;7.04;97.09;100760.34;5012545;28;20449;-51
2023/02/01 08:11:11;;;;;;;37.10;0.50;;;;;;;6.94;97.11;100762.16;5008057;28;20445;-51
2023/02/01 08:13:37;;;;;;;1.30;1.20;;;;;;;6.79;97.86;100756.97;5004010;28;20588;-52
2023/02/01 08:16:06;;;;;;;0.87;0.87;;;;;;;6.98;97.05;100749.78;5014414;28;20489;-52
2023/02/01 08:18:34;;;;;;;2.13;0.40;;;;;;;6.83;96.07;100749.00;5014329;28;20908;-51
2023/02/01 08:21:08;;;;;;;2.73;0.63;;;;;;;7.02;96.51;100756.81;5014283;28;20459;-52
2023/02/01 08:23:36;;;;;;;0.37;0.37;;;;;;;7.08;95.88;100767.34;5013317;28;20464;-51
2023/02/01 08:26:11;;;;;;;2.57;1.43;;;;;;;7.00;95.41;100758.59;5014345;28;20453;-52
2023/02/01 08:28:39;;;;;;;3.17;0.97;;;;;;;6.92;94.10;100763.06;5014397;28;20455;-51
2023/02/01 08:31:12;;;;;;;9.93;0.60;;;;;;;6.94;94.43;100762.16;5014146;28;20449;-51
2023/02/01 08:33:38;;;;;;;0.30;0.20;;;;;;;6.89;94.07;100771.00;5014006;28;20475;-53
2023/02/01 08:36:06;;;;;;;0.77;0.40;;;;;;;7.07;93.96;100769.13;4994629;28;20816;-51
2023/02/01 08:38:36;;;;;;;7.10;1.17;;;;;;;7.00;93.35;100777.09;5007111;28;20544;-52
2023/02/01 08:41:10;;;;;;;1.93;1.00;;;;;;;7.15;93.49;100779.66;4998279;28;20857;-52
2023/02/01 08:43:36;;;;;;;0.73;0.50;;;;;;;7.04;93.12;100774.44;5000646;28;20469;-51
2023/02/01 08:46:04;;;;;;;3.70;1.37;;;;;;;7.25;92.97;100773.38;5013972;28;21027;-51
2023/02/01 08:48:31;;;;;;;28.13;1.40;;;;;;;7.26;92.50;100780.44;5010786;28;20512;-53
2023/02/01 08:51:04;;;;;;;0.47;0.47;;;;;;;7.30;92.15;100783.94;5003747;28;20848;-52
2023/02/01 08:53:31;;;;;;;2.30;2.20;;;;;;;7.36;91.75;100787.41;5013557;28;21020;-53
2023/02/01 08:55:58;;;;;;;4.00;1.03;;;;;;;7.38;92.19;100790.91;5013791;28;20826;-51
2023/02/01 08:58:24;;;;;;;4.77;0.70;;;;;;;7.18;92.14;100791.97;5013462;28;20452;-51
2023/02/01 09:00:51;;;;;;;0.40;0.40;;;;;;;7.27;91.42;100800.72;5013524;28;20453;-52
2023/02/01 09:03:18;;;;;;;6.43;0.77;;;;;;;7.36;91.39;100792.69;5013977;28;20472;-51
2023/02/01 09:05:44;;;;;;;0.60;0.60;;;;;;;7.36;91.94;100790.06;5013498;28;20468;-51
2023/02/01 09:08:15;;;;;;;0.40;0.40;;;;;;;7.36;92.23;100803.28;5013526;28;20444;-54
2023/02/01 09:10:42;;;;;;;4.13;0.80;;;;;;;7.30;91.61;100800.69;5006612;28;20448;-51
2023/02/01 09:13:09;;;;;;;0.73;0.73;;;;;;;7.52;91.77;100797.88;4999954;28;20476;-51
2023/02/01 09:15:36;;;;;;;0.60;0.60;;;;;;;7.59;92.51;100802.22;5013323;28;20827;-51
2023/02/01 09:18:03;;;;;;;8.10;0.97;;;;;;;7.60;91.38;100802.22;5013149;28;20484;-51
2023/02/01 09:20:29;;;;;;;0.30;0.30;;;;;;;7.56;90.70;100807.56;5013496;28;20485;-53
2023/02/01 09:22:56;;;;;;;8.67;1.40;;;;;;;7.62;90.80;100802.19;5013100;28;20469;-51
2023/02/01 09:25:22;;;;;;;16.73;1.63;;;;;;;7.69;89.53;100817.16;5013102;28;20942;-52
2023/02/01 09:27:49;;;;;;;0.50;0.30;;;;;;;7.88;89.78;100821.38;5012989;28;20503;-51
2023/02/01 09:30:15;;;;;;;9.87;2.10;;;;;;;7.81;89.85;100827.63;5013010;28;20980;-51
2023/02/01 09:32:42;;;;;;;1.20;1.10;;;;;;;7.83;89.99;100839.06;5013057;28;20564;-52
2023/02/01 09:35:08;;;;;;;7.53;0.60;;;;;;;8.12;90.04;100846.75;5013209;28;20456;-52
2023/02/01 09:37:37;;;;;;;0.73;0.73;;;;;;;7.79;90.21;100847.91;5012995;28;20452;-52
2023/02/01 09:40:04;;;;;;;0.30;0.27;;;;;;;7.92;90.15;100851.34;5000302;28;20493;-51
2023/02/01 09:42:48;;;;;;;2.33;0.90;;;;;;;7.88;89.48;100849.63;5002703;28;20477;-51
2023/02/01 09:45:34;;;;;;;3.70;1.03;;;;;;;7.84;90.23;100853.19;5008784;28;21020;-51
2023/02/01 09:48:10;;;;;;;2.73;1.47;;;;;;;7.91;89.36;100855.75;5012904;28;20459;-52
2023/02/01 09:50:39;;;;;;;2.80;0.67;;;;;;;7.91;88.56;100853.09;4999908;28;20494;-53
2023/02/01 09:53:29;;;;;;;6.77;1.87;;;;;;;8.02;89.30;100864.47;5011923;28;20846;-52
2023/02/01 09:56:04;;;;;;;17.97;0.77;;;;;;;7.99;89.38;100863.63;5003445;28;20448;-51
2023/02/01 09:58:44;;;;;;;0.50;0.43;;;;;;;8.21;89.06;100870.47;5012759;28;20448;-53
2023/02/01 10:01:29;;;;;;;5.83;2.87;;;;;;;8.07;88.75;100868.84;5012386;28;20793;-53
2023/02/01 10:04:03;;;;;;;0.70;0.70;;;;;;;8.14;87.63;100865.28;5012945;28;20611;-53
2023/02/01 10:06:44;;;;;;;12.17;0.63;;;;;;;7.96;87.70;100859.25;5012387;28;20518;-53
2023/02/01 10:09:42;;;;;;;5.80;1.47;;;;;;;8.02;88.38;100869.78;5007214;28;20452;-53
2023/02/01 10:12:38;;;;;;;0.60;0.60;;;;;;;7.87;87.79;100859.31;5001781;28;20481;-52
2023/02/01 10:15:29;;;;;;;1.17;1.17;;;;;;;8.21;86.90;100861.66;4993079;28;20454;-53
2023/02/01 10:18:26;;;;;;;3.83;1.33;;;;;;;8.14;87.19;100859.97;5001352;28;20480;-53
2023/02/01 10:21:16;;;;;;;1.70;0.83;;;;;;;8.24;86.89;100857.22;5009011;28;20484;-52
2023/02/01 10:24:18;;;;;;;1.90;0.90;;;;;;;8.17;87.44;100852.00;5012468;28;20468;-52
2023/02/01 10:26:50;;;;;;;8.77;0.97;;;;;;;8.24;87.04;100854.59;4985812;28;20883;-53
2023/02/01 10:29:24;;;;;;;1.60;0.77;;;;;;;8.39;86.83;100861.53;5011311;28;20946;-52
2023/02/01 10:31:51;;;;;;;2.63;0.60;;;;;;;8.20;86.73;100857.25;5013155;28;20473;-52
2023/02/01 10:34:33;;;;;;;0.50;0.30;;;;;;;8.20;86.70;100847.53;5013242;28;20449;-53
2023/02/01 10:37:18;;;;;;;0.90;0.90;;;;;;;8.27;86.21;100853.66;5012494;28;20455;-53
2023/02/01 10:39:48;;;;;;;1.83;1.33;;;;;;;8.36;86.93;100843.03;5002185;28;20501;-53
2023/02/01 10:42:17;;;;;;;0.93;0.30;;;;;;;8.36;87.09;100843.03;5005983;28;20888;-53
2023/02/01 10:44:47;;;;;;;0.90;0.33;;;;;;;8.22;87.23;100823.69;5004704;28;20457;-54
2023/02/01 10:47:15;;;;;;;1.63;1.10;;;;;;;8.18;86.12;100821.97;5012378;28;20452;-53
2023/02/01 10:50:15;;;;;;;10.00;1.23;;;;;;;8.09;86.41;100817.66;4999880;28;20826;-53
2023/02/01 10:52:57;;;;;;;8.23;1.47;;;;;;;8.18;87.10;100824.63;4993341;28;20501;-53
2023/02/01 10:55:28;;;;;;;8.70;0.40;;;;;;;8.27;86.82;100825.41;4998714;28;20946;-53
2023/02/01 10:57:59;;;;;;;0.33;0.30;;;;;;;8.10;87.33;100819.41;5012088;28;20543;-53
2023/02/01 11:00:27;;;;;;;16.70;1.27;;;;;;;8.13;86.85;100818.50;4992598;28;20588;-53
2023/02/01 11:02:54;;;;;;;2.97;0.90;;;;;;;8.26;87.18;100809.53;5006430;28;20472;-54
2023/02/01 11:05:22;;;;;;;0.60;0.50;;;;;;;8.11;86.94;100815.88;5012062;28;20459;-53
2023/02/01 11:07:53;;;;;;;2.90;0.80;;;;;;;8.02;86.56;100808.88;5011852;28;20456;-53
2023/02/01 11:10:40;;;;;;;3.33;0.70;;;;;;;8.15;87.35;100814.94;5005969;28;20480;-52
2023/02/01 11:13:18;;;;;;;0.50;0.37;;;;;;;8.16;87.18;100792.00;4997595;28;20487;-57
2023/02/01 11:15:46;;;;;;;4.53;1.60;;;;;;;8.16;87.92;100787.56;5011679;28;20495;-58
2023/02/01 11:18:26;;;;;;;0.90;0.73;;;;;;;8.14;87.59;100791.13;5012115;28;20903;-58
2023/02/01 11:20:54;;;;;;;0.30;0.23;;;;;;;8.25;87.49;100791.91;5015487;28;20495;-58
2023/02/01 11:23:24;;;;;;;0.60;0.30;;;;;;;8.38;87.38;100788.25;5015403;28;20468;-57
2023/02/01 11:25:59;;;;;;;1.07;0.93;;;;;;;8.36;85.96;100787.41;5015229;28;20822;-58
2023/02/01 11:28:32;;;;;;;2.10;0.83;;;;;;;8.43;86.62;100788.19;5015184;28;20502;-57
2023/02/01 11:31:02;;;;;;;0.50;0.50;;;;;;;8.38;85.30;100800.63;5015264;28;20444;-58
2023/02/01 11:33:34;;;;;;;4.63;0.70;;;;;;;8.36;86.14;100797.09;5015314;28;20523;-58
2023/02/01 11:36:08;;;;;;;2.10;0.60;;;;;;;8.42;85.72;100802.31;5015447;28;20456;-57
2023/02/01 11:38:35;;;;;;;12.77;0.60;;;;;;;8.36;86.47;100805.94;5014109;28;20829;-58
2023/02/01 11:41:20;;;;;;;12.87;2.00;;;;;;;8.42;86.26;100792.59;5003634;28;20571;-58
2023/02/01 11:44:00;;;;;;;0.63;0.63;;;;;;;8.43;86.24;100807.59;5001826;28;20469;-58
2023/02/01 11:46:32;;;;;;;7.70;0.90;;;;;;;8.50;85.82;100811.97;5015137;28;20460;-57
2023/02/01 11:49:20;;;;;;;0.30;0.20;;;;;;;8.33;85.97;100801.50;5015050;28;20449;-56
2023/02/01 11:52:05;;;;;;;1.90;1.53;;;;;;;8.41;85.96;100793.50;5014666;28;20453;-58
2023/02/01 11:54:56;;;;;;;0.87;0.73;;;;;;;8.43;85.91;100812.03;5002523;28;20457;-58
2023/02/01 11:57:46;;;;;;;6.33;0.80;;;;;;;8.24;86.18;100800.75;4995304;28;20453;-57
2023/02/01 12:00:32;;;;;;;3.17;0.70;;;;;;;8.43;84.85;100789.06;5014163;28;20492;-57
2023/02/01 12:03:30;;;;;;;2.40;1.37;;;;;;;8.47;84.53;100793.41;5014520;28;20965;-56
2023/02/01 12:06:29;;;;;;;13.83;0.50;;;;;;;8.34;84.40;100783.84;5014783;28;20499;-57
2023/02/01 12:09:08;;;;;;;2.63;0.63;;;;;;;8.37;84.68;100780.31;4996308;28;20539;-57
2023/02/01 12:11:56;;;;;;;8.00;1.33;;;;;;;8.65;84.57;100776.44;5008631;28;20537;-57
2023/02/01 12:14:50;;;;;;;3.20;1.80;;;;;;;8.50;85.23;100776.63;5009951;28;20448;-56
2023/02/01 12:17:36;;;;;;;0.40;0.33;;;;;;;8.35;85.22;100766.19;5014602;28;20806;-56